Time;durP1;ratioP1;P1;durP2;ratioP2;P2;SDS_P1;SDS_P2;PMS_P1;PMS_P2;Temp;Humidity;BMP_temperature;BMP_pressure;BME280_temperature;BME280_humidity;BME280_pressure;Samples;Min_cycle;Max_cycle;Signal;HPM_P1;HPM_P2
2022/03/06 00:00:08;;;;;;;25.42;13.30;;;-0.60;99.90;;;;;;5066973;28;20033;-57
2022/03/06 00:02:35;;;;;;;28.73;14.05;;;-0.60;99.90;;;;;;5067041;28;20039;-58
2022/03/06 00:05:01;;;;;;;30.17;14.88;;;-0.60;99.90;;;;;;5061178;28;20049;-57
2022/03/06 00:07:26;;;;;;;31.48;15.10;;;-0.60;99.90;;;;;;5047919;28;20102;-57
2022/03/06 00:09:52;;;;;;;30.52;15.77;;;-0.60;99.90;;;;;;5066389;28;20068;-58
2022/03/06 00:12:17;;;;;;;32.60;15.65;;;-0.60;99.90;;;;;;5067798;28;20123;-59
2022/03/06 00:14:43;;;;;;;31.38;15.73;;;-0.70;99.90;;;;;;5061722;28;20048;-58
2022/03/06 00:17:08;;;;;;;30.17;15.93;;;-0.70;99.90;;;;;;5067406;28;20118;-58
2022/03/06 00:19:34;;;;;;;30.23;16.33;;;-0.70;99.90;;;;;;5067337;28;20051;-58
2022/03/06 00:21:59;;;;;;;32.75;16.00;;;-0.70;99.90;;;;;;5067650;28;20045;-58
2022/03/06 00:24:25;;;;;;;32.10;17.02;;;-0.70;99.90;;;;;;5060482;28;20037;-59
2022/03/06 00:26:51;;;;;;;30.92;16.20;;;-0.70;99.90;;;;;;5058675;28;20133;-59
2022/03/06 00:29:16;;;;;;;32.13;17.20;;;-0.70;99.90;;;;;;5067090;28;20491;-58
2022/03/06 00:31:42;;;;;;;39.50;16.98;;;-0.70;99.90;;;;;;5061587;28;20043;-58
2022/03/06 00:34:07;;;;;;;34.03;17.85;;;-0.70;99.90;;;;;;5066847;28;20055;-58
2022/03/06 00:36:33;;;;;;;29.52;16.33;;;-0.70;99.90;;;;;;5066842;28;20149;-58
2022/03/06 00:38:58;;;;;;;33.55;17.48;;;-0.70;99.90;;;;;;5065750;28;20044;-59
2022/03/06 00:41:24;;;;;;;29.45;16.52;;;-0.70;99.90;;;;;;5062010;28;20045;-59
2022/03/06 00:43:50;;;;;;;31.33;16.15;;;-0.80;99.90;;;;;;5066338;28;20044;-58
2022/03/06 00:46:15;;;;;;;30.02;16.73;;;-0.90;99.90;;;;;;5069661;28;20036;-58
2022/03/06 00:48:41;;;;;;;30.65;17.25;;;-0.90;99.90;;;;;;5063668;28;20033;-58
2022/03/06 00:51:06;;;;;;;38.10;17.92;;;-0.90;99.90;;;;;;5070173;28;20181;-58
2022/03/06 00:53:32;;;;;;;33.45;17.95;;;-0.90;99.90;;;;;;5070091;28;20072;-58
2022/03/06 00:55:57;;;;;;;34.58;18.17;;;-0.90;99.90;;;;;;5070248;28;20063;-58
2022/03/06 00:58:23;;;;;;;36.05;18.05;;;-0.90;99.90;;;;;;5061204;28;20051;-58
2022/03/06 01:00:49;;;;;;;34.72;18.17;;;-0.80;99.90;;;;;;5061216;28;20050;-58
2022/03/06 01:03:17;;;;;;;32.72;16.00;;;-0.80;99.90;;;;;;5070138;28;20580;-58
2022/03/06 01:05:44;;;;;;;36.92;18.63;;;-0.80;99.90;;;;;;5060042;28;20698;-58
2022/03/06 01:08:10;;;;;;;34.53;17.10;;;-0.80;99.90;;;;;;5063336;28;20040;-57
2022/03/06 01:10:37;;;;;;;33.08;17.75;;;-0.80;99.90;;;;;;5070462;28;20075;-58
2022/03/06 01:13:05;;;;;;;35.13;18.83;;;-0.80;99.90;;;;;;5062936;28;20036;-58
2022/03/06 01:15:31;;;;;;;34.83;17.80;;;-0.70;99.90;;;;;;5061104;28;20076;-58
2022/03/06 01:17:56;;;;;;;36.33;18.70;;;-0.80;99.90;;;;;;5069834;28;20068;-57
2022/03/06 01:20:23;;;;;;;34.95;19.27;;;-0.80;99.90;;;;;;5063216;28;20041;-58
2022/03/06 01:22:49;;;;;;;40.08;19.13;;;-0.80;99.90;;;;;;5063175;28;20170;-57
2022/03/06 01:25:15;;;;;;;35.80;18.17;;;-0.90;99.90;;;;;;5069943;28;20067;-59
2022/03/06 01:27:41;;;;;;;34.53;17.98;;;-0.90;99.90;;;;;;5067677;22;20080;-59
2022/03/06 01:30:08;;;;;;;36.30;18.88;;;-1.00;99.90;;;;;;5005442;28;20492;-59
2022/03/06 01:32:34;;;;;;;37.53;18.42;;;-1.00;99.90;;;;;;5001928;28;20046;-58
2022/03/06 01:35:00;;;;;;;34.45;18.50;;;-1.10;99.90;;;;;;5009924;28;20173;-59
2022/03/06 01:37:26;;;;;;;33.63;17.95;;;-1.10;99.90;;;;;;5003764;28;20563;-59
2022/03/06 01:39:52;;;;;;;34.95;18.90;;;-1.10;99.90;;;;;;5004175;28;20508;-59
2022/03/06 01:42:18;;;;;;;35.15;19.05;;;-1.20;99.90;;;;;;5009813;28;20096;-60
2022/03/06 01:44:51;;;;;;;33.33;18.52;;;-1.20;99.90;;;;;;5009591;28;20065;-58
2022/03/06 01:47:37;;;;;;;36.97;19.52;;;-1.20;99.90;;;;;;5000238;28;20464;-60
2022/03/06 01:50:16;;;;;;;35.88;18.95;;;-1.20;99.90;;;;;;4997332;28;20050;-60
2022/03/06 01:52:43;;;;;;;32.65;17.38;;;-1.30;99.90;;;;;;5009930;28;20042;-58
2022/03/06 01:55:08;;;;;;;35.28;19.25;;;-1.30;99.90;;;;;;4996777;28;20038;-60
2022/03/06 01:57:35;;;;;;;34.45;16.67;;;-1.20;99.90;;;;;;5004537;28;20400;-58
2022/03/06 02:00:03;;;;;;;18.75;9.70;;;-1.20;99.90;;;;;;5009562;28;20030;-60
2022/03/06 02:02:29;;;;;;;25.25;13.38;;;-1.10;99.90;;;;;;5009721;28;20045;-59
2022/03/06 02:04:55;;;;;;;32.45;16.25;;;-1.00;99.90;;;;;;4995719;28;20038;-59
2022/03/06 02:07:20;;;;;;;29.15;16.13;;;-1.00;99.90;;;;;;5003858;28;20496;-58
2022/03/06 02:09:46;;;;;;;32.30;16.83;;;-1.00;99.90;;;;;;5005045;28;20030;-59
2022/03/06 02:12:23;;;;;;;29.55;15.73;;;-1.00;99.90;;;;;;4995344;28;20030;-57
2022/03/06 02:14:56;;;;;;;28.50;14.35;;;-1.00;99.90;;;;;;5007501;28;20451;-57
2022/03/06 02:17:23;;;;;;;25.45;13.05;;;-1.00;99.90;;;;;;5009241;28;20038;-57
2022/03/06 02:19:57;;;;;;;28.95;15.68;;;-1.10;99.90;;;;;;5006696;28;20038;-57
2022/03/06 02:22:25;;;;;;;29.55;15.85;;;-1.10;99.90;;;;;;5002450;28;20117;-57
2022/03/06 02:24:52;;;;;;;34.60;16.25;;;-1.10;99.90;;;;;;5008524;28;20096;-59
2022/03/06 02:27:18;;;;;;;34.85;18.08;;;-1.10;99.90;;;;;;5006923;28;20038;-58
2022/03/06 02:29:44;;;;;;;34.83;16.95;;;-1.10;99.90;;;;;;4986176;28;20038;-55
2022/03/06 02:32:13;;;;;;;30.58;16.42;;;-1.10;99.90;;;;;;4999338;28;20108;-56
2022/03/06 02:34:40;;;;;;;22.95;11.50;;;-1.10;99.90;;;;;;5009062;28;20072;-56
2022/03/06 02:37:06;;;;;;;19.83;10.52;;;-1.10;99.90;;;;;;5006661;28;20049;-58
2022/03/06 02:39:32;;;;;;;25.00;12.35;;;-1.00;99.90;;;;;;5008565;28;20049;-56
2022/03/06 02:41:58;;;;;;;36.20;18.13;;;-0.90;99.90;;;;;;5008842;28;20041;-58
2022/03/06 02:44:25;;;;;;;34.95;17.98;;;-0.90;99.90;;;;;;5003056;28;20061;-58
2022/03/06 02:46:51;;;;;;;32.83;16.70;;;-0.90;99.90;;;;;;4992240;28;20502;-57
2022/03/06 02:49:20;;;;;;;32.70;17.67;;;-0.90;99.90;;;;;;5008572;28;20100;-57
2022/03/06 02:51:46;;;;;;;30.67;15.93;;;-0.90;99.90;;;;;;5005819;28;20057;-57
2022/03/06 02:54:14;;;;;;;31.42;16.48;;;-0.90;99.90;;;;;;5002123;28;20046;-58
2022/03/06 02:56:40;;;;;;;16.70;8.80;;;-0.80;99.90;;;;;;5008361;28;20184;-57
2022/03/06 02:59:07;;;;;;;23.33;12.02;;;-0.80;99.90;;;;;;5008648;28;20042;-57
2022/03/06 03:01:38;;;;;;;24.23;13.20;;;-0.70;99.90;;;;;;5000737;28;20039;-57
2022/03/06 03:04:04;;;;;;;28.45;15.70;;;-0.70;99.90;;;;;;5001836;28;20038;-56
2022/03/06 03:06:30;;;;;;;26.35;13.60;;;-0.70;99.90;;;;;;5008216;28;20046;-58
2022/03/06 03:08:56;;;;;;;26.38;15.13;;;-0.70;99.90;;;;;;5008179;28;20038;-56
2022/03/06 03:11:22;;;;;;;31.17;16.92;;;-0.80;99.90;;;;;;5000440;28;20084;-57
2022/03/06 03:13:48;;;;;;;27.50;13.93;;;-0.80;99.90;;;;;;5007953;28;20095;-56
2022/03/06 03:16:13;;;;;;;30.55;14.88;;;-0.80;99.90;;;;;;5008238;28;20049;-57
2022/03/06 03:18:38;;;;;;;29.10;15.73;;;-0.70;99.90;;;;;;4999057;28;20046;-55
2022/03/06 03:21:04;;;;;;;29.65;15.25;;;-0.80;99.90;;;;;;5008035;28;20037;-56
2022/03/06 03:23:30;;;;;;;28.35;15.48;;;-0.80;99.90;;;;;;5007852;28;20711;-56
2022/03/06 03:25:55;;;;;;;34.25;15.82;;;-0.80;99.90;;;;;;5008415;28;20647;-57
2022/03/06 03:28:22;;;;;;;29.05;15.73;;;-0.80;99.90;;;;;;5005982;28;20033;-57
2022/03/06 03:30:47;;;;;;;29.45;16.65;;;-0.80;99.90;;;;;;4998375;28;20033;-58
2022/03/06 03:33:13;;;;;;;28.77;16.73;;;-0.80;99.90;;;;;;5008037;28;20120;-56
2022/03/06 03:35:38;;;;;;;29.63;16.00;;;-0.80;99.90;;;;;;5004000;28;20074;-56
2022/03/06 03:38:04;;;;;;;28.10;15.75;;;-0.80;99.90;;;;;;5007760;28;20602;-55
2022/03/06 03:40:29;;;;;;;30.30;16.25;;;-0.90;99.90;;;;;;5007938;28;20053;-57
2022/03/06 03:42:55;;;;;;;28.00;16.52;;;-0.90;99.90;;;;;;5002446;28;20038;-57
2022/03/06 03:45:21;;;;;;;27.85;16.95;;;-0.90;99.90;;;;;;5000177;28;20037;-58
2022/03/06 03:47:46;;;;;;;27.55;16.40;;;-0.90;99.90;;;;;;5008075;28;20104;-56
2022/03/06 03:50:12;;;;;;;30.15;16.20;;;-0.90;99.90;;;;;;5008028;28;20129;-57
2022/03/06 03:52:38;;;;;;;30.35;16.75;;;-0.90;99.90;;;;;;4995682;28;20133;-57
2022/03/06 03:55:05;;;;;;;27.27;16.50;;;-1.00;99.90;;;;;;5007622;28;20046;-58
2022/03/06 03:57:30;;;;;;;28.30;16.35;;;-1.00;99.90;;;;;;5007781;28;20627;-57
2022/03/06 03:59:56;;;;;;;28.80;16.52;;;-1.00;99.90;;;;;;5006398;28;20124;-57
2022/03/06 04:02:22;;;;;;;29.55;16.65;;;-1.00;99.90;;;;;;5007648;28;20040;-57
2022/03/06 04:04:47;;;;;;;28.10;16.20;;;-1.00;99.90;;;;;;5007580;28;20038;-56
2022/03/06 04:07:13;;;;;;;26.10;15.32;;;-1.00;99.90;;;;;;4996964;28;20058;-57
2022/03/06 04:09:38;;;;;;;28.08;16.27;;;-1.00;99.90;;;;;;5004395;28;20103;-57
2022/03/06 04:12:04;;;;;;;30.85;16.83;;;-0.90;99.90;;;;;;5007647;28;20060;-56
2022/03/06 04:14:30;;;;;;;30.00;16.27;;;-0.90;99.90;;;;;;5007601;28;20074;-57
2022/03/06 04:16:56;;;;;;;29.15;15.63;;;-0.90;99.90;;;;;;5005924;28;20054;-56
2022/03/06 04:19:21;;;;;;;30.75;16.75;;;-0.80;99.90;;;;;;5001821;28;20045;-56
2022/03/06 04:21:47;;;;;;;28.95;16.60;;;-0.70;99.90;;;;;;5011087;28;20100;-56
2022/03/06 04:24:12;;;;;;;27.48;16.95;;;-0.70;99.90;;;;;;5004979;28;20038;-58
2022/03/06 04:26:38;;;;;;;32.50;17.38;;;-0.70;99.90;;;;;;5007768;28;20045;-57
2022/03/06 04:29:04;;;;;;;25.90;15.32;;;-0.80;99.90;;;;;;5011259;28;20081;-58
2022/03/06 04:31:30;;;;;;;30.20;16.90;;;-0.80;99.90;;;;;;5010846;28;20100;-58
2022/03/06 04:33:55;;;;;;;28.35;16.05;;;-0.90;99.90;;;;;;4998846;28;20046;-56
2022/03/06 04:36:21;;;;;;;26.05;16.38;;;-1.00;99.90;;;;;;5005710;28;20512;-56
2022/03/06 04:38:46;;;;;;;27.70;16.10;;;-1.00;99.90;;;;;;5002596;28;20142;-57
2022/03/06 04:41:12;;;;;;;28.90;15.68;;;-1.10;99.90;;;;;;4992275;28;20046;-56
2022/03/06 04:43:38;;;;;;;31.52;15.50;;;-1.10;99.90;;;;;;5006121;28;20030;-57
2022/03/06 04:46:04;;;;;;;29.38;16.27;;;-1.10;99.90;;;;;;5010668;28;20061;-56
2022/03/06 04:48:30;;;;;;;27.90;17.05;;;-1.10;99.90;;;;;;5008058;28;20042;-57
2022/03/06 04:50:56;;;;;;;27.92;15.70;;;-1.10;99.90;;;;;;5010740;28;20053;-56
2022/03/06 04:53:21;;;;;;;29.20;17.60;;;-1.10;99.90;;;;;;5010902;28;20381;-57
2022/03/06 04:55:47;;;;;;;23.25;14.48;;;-1.10;99.90;;;;;;5009670;28;20549;-58
2022/03/06 04:58:13;;;;;;;27.58;16.48;;;-1.10;99.90;;;;;;5000370;28;20038;-56
2022/03/06 05:00:38;;;;;;;31.58;14.90;;;-1.00;99.90;;;;;;5003407;28;20400;-58
2022/03/06 05:03:04;;;;;;;24.50;14.95;;;-1.00;99.90;;;;;;5009604;28;20080;-56
2022/03/06 05:05:29;;;;;;;26.35;14.82;;;-1.00;99.90;;;;;;5010467;28;20121;-57
2022/03/06 05:07:55;;;;;;;25.70;16.02;;;-0.90;99.90;;;;;;4997440;28;20191;-59
2022/03/06 05:10:20;;;;;;;29.08;16.23;;;-1.00;99.90;;;;;;5003828;28;20125;-58
2022/03/06 05:12:46;;;;;;;27.73;15.75;;;-0.90;99.90;;;;;;5010165;28;20046;-57
2022/03/06 05:15:13;;;;;;;29.20;14.43;;;-1.00;99.90;;;;;;5002420;28;20048;-57
2022/03/06 05:17:40;;;;;;;26.58;15.45;;;-0.90;99.90;;;;;;5009569;28;20044;-57
2022/03/06 05:20:07;;;;;;;29.15;16.58;;;-1.00;99.90;;;;;;5010429;28;20033;-57
2022/03/06 05:22:32;;;;;;;25.60;15.63;;;-1.00;99.90;;;;;;5006512;28;20048;-57
2022/03/06 05:24:58;;;;;;;25.23;16.52;;;-1.10;99.90;;;;;;5008064;28;20042;-58
2022/03/06 05:27:25;;;;;;;24.77;15.88;;;-1.10;99.90;;;;;;5009238;28;20073;-57
2022/03/06 05:29:51;;;;;;;26.70;15.93;;;-1.20;99.90;;;;;;5009927;28;20065;-57
2022/03/06 05:32:16;;;;;;;26.17;15.32;;;-1.20;99.90;;;;;;5001386;28;20064;-56
2022/03/06 05:34:42;;;;;;;24.45;15.27;;;-1.20;99.90;;;;;;5009699;28;20085;-57
2022/03/06 05:37:07;;;;;;;24.98;15.48;;;-1.20;99.90;;;;;;5010369;28;20045;-56
2022/03/06 05:39:33;;;;;;;25.33;15.90;;;-1.30;99.90;;;;;;5000045;28;20041;-57
2022/03/06 05:41:58;;;;;;;25.15;15.18;;;-1.30;99.90;;;;;;5005577;28;20474;-57
2022/03/06 05:44:24;;;;;;;24.67;15.40;;;-1.30;99.90;;;;;;5009544;28;20062;-56
2022/03/06 05:46:50;;;;;;;24.85;15.15;;;-1.40;99.90;;;;;;5009775;28;20108;-57
2022/03/06 05:49:16;;;;;;;29.13;16.05;;;-1.30;99.90;;;;;;5001882;28;20670;-55
2022/03/06 05:51:42;;;;;;;25.20;15.25;;;-1.40;99.90;;;;;;5000644;28;20040;-56
2022/03/06 05:54:08;;;;;;;23.85;15.63;;;-1.40;99.90;;;;;;5009599;28;20033;-58
2022/03/06 05:56:35;;;;;;;22.67;14.73;;;-1.40;99.90;;;;;;5003183;28;20035;-57
2022/03/06 05:59:03;;;;;;;23.65;15.02;;;-1.40;99.90;;;;;;4992209;28;20046;-56
2022/03/06 06:01:31;;;;;;;23.98;15.25;;;-1.30;99.90;;;;;;5004426;28;20059;-57
2022/03/06 06:03:57;;;;;;;24.00;14.90;;;-1.40;99.90;;;;;;5005440;28;20077;-58
2022/03/06 06:06:24;;;;;;;23.83;14.52;;;-1.50;99.90;;;;;;5007997;28;20081;-57
2022/03/06 06:08:50;;;;;;;22.30;13.88;;;-1.50;99.90;;;;;;5009207;28;20037;-57
2022/03/06 06:11:16;;;;;;;23.08;14.45;;;-1.50;99.90;;;;;;5008405;28;20369;-58
2022/03/06 06:13:41;;;;;;;23.75;13.95;;;-1.50;99.90;;;;;;4995923;28;20057;-58
2022/03/06 06:16:07;;;;;;;20.10;13.63;;;-1.50;99.90;;;;;;5005646;28;20577;-58
2022/03/06 06:18:32;;;;;;;23.77;14.05;;;-1.50;99.90;;;;;;5006768;28;20052;-58
2022/03/06 06:20:58;;;;;;;23.92;11.98;;;-1.30;99.90;;;;;;5003472;28;20050;-58
2022/03/06 06:23:24;;;;;;;14.25;8.55;;;-1.30;99.90;;;;;;5001523;28;20049;-57
2022/03/06 06:25:49;;;;;;;22.20;12.75;;;-1.10;99.90;;;;;;5006680;28;20053;-58
2022/03/06 06:28:15;;;;;;;20.25;11.70;;;-1.10;99.90;;;;;;5006423;28;20096;-59
2022/03/06 06:30:41;;;;;;;20.48;13.10;;;-0.90;99.90;;;;;;5002634;28;20111;-59
2022/03/06 06:33:07;;;;;;;21.00;13.63;;;-0.80;99.90;;;;;;5006123;28;20061;-59
2022/03/06 06:35:34;;;;;;;20.25;12.85;;;-0.70;99.90;;;;;;5006243;28;20042;-59
2022/03/06 06:38:00;;;;;;;24.52;13.60;;;-0.70;99.90;;;;;;4999680;28;20092;-59
2022/03/06 06:40:26;;;;;;;24.55;13.15;;;-0.50;99.90;;;;;;4997303;28;20042;-60
2022/03/06 06:42:52;;;;;;;22.35;12.85;;;-0.50;99.90;;;;;;5005197;28;20073;-59
2022/03/06 06:45:18;;;;;;;18.80;12.20;;;-0.40;99.90;;;;;;5001098;28;20077;-59
2022/03/06 06:47:43;;;;;;;19.40;10.57;;;-0.40;99.90;;;;;;5005455;28;20073;-59
2022/03/06 06:50:09;;;;;;;18.55;11.40;;;-0.30;99.90;;;;;;5006138;28;20208;-59
2022/03/06 06:52:35;;;;;;;19.80;11.93;;;-0.30;99.90;;;;;;5006088;28;20068;-58
2022/03/06 06:55:01;;;;;;;18.83;10.95;;;-0.20;99.90;;;;;;5001354;28;20457;-58
2022/03/06 06:57:27;;;;;;;17.55;10.50;;;-0.10;99.90;;;;;;5005872;28;20038;-58
2022/03/06 06:59:52;;;;;;;20.45;10.27;;;0.00;99.90;;;;;;5005630;28;20053;-58
2022/03/06 07:02:18;;;;;;;13.75;9.35;;;0.10;99.90;;;;;;5003353;28;20042;-58
2022/03/06 07:04:44;;;;;;;14.85;9.95;;;0.10;99.90;;;;;;5002873;28;20042;-58
2022/03/06 07:07:09;;;;;;;16.88;9.68;;;0.20;99.90;;;;;;5005530;28;20690;-58
2022/03/06 07:09:35;;;;;;;16.83;9.75;;;0.30;99.90;;;;;;5005871;28;20037;-60
2022/03/06 07:12:01;;;;;;;14.88;8.35;;;0.30;99.90;;;;;;4991921;28;20042;-59
2022/03/06 07:14:26;;;;;;;16.05;9.32;;;0.40;99.90;;;;;;5003796;28;20538;-58
2022/03/06 07:16:52;;;;;;;12.30;8.18;;;0.50;99.90;;;;;;5006006;28;20122;-58
2022/03/06 07:19:18;;;;;;;12.52;8.23;;;0.60;99.90;;;;;;5003210;28;20485;-59
2022/03/06 07:21:44;;;;;;;11.23;7.78;;;0.70;99.90;;;;;;5005079;28;20518;-59
2022/03/06 07:24:10;;;;;;;12.65;6.95;;;0.80;99.90;;;;;;5005333;28;20125;-58
2022/03/06 07:26:35;;;;;;;14.27;7.07;;;0.90;99.90;;;;;;5005743;28;20125;-57
2022/03/06 07:29:02;;;;;;;12.70;7.53;;;0.90;99.90;;;;;;4991145;28;20046;-59
2022/03/06 07:31:28;;;;;;;10.38;6.88;;;1.00;99.90;;;;;;5000735;28;20069;-58
2022/03/06 07:33:53;;;;;;;12.75;7.65;;;1.00;99.90;;;;;;5006140;28;20149;-59
2022/03/06 07:36:19;;;;;;;12.80;7.50;;;1.10;99.90;;;;;;5003153;28;20476;-59
2022/03/06 07:38:44;;;;;;;11.02;6.90;;;1.10;99.90;;;;;;4994167;28;20042;-59
2022/03/06 07:41:12;;;;;;;11.90;7.13;;;1.10;99.90;;;;;;5005284;28;20050;-59
2022/03/06 07:43:38;;;;;;;13.88;7.43;;;1.20;99.90;;;;;;5004672;28;20125;-58
2022/03/06 07:46:03;;;;;;;9.88;7.00;;;1.20;99.90;;;;;;4997165;28;20044;-58
2022/03/06 07:48:29;;;;;;;11.43;7.13;;;1.30;99.90;;;;;;5005328;28;20044;-58
2022/03/06 07:50:55;;;;;;;11.80;6.90;;;1.30;99.90;;;;;;5005329;28;20038;-58
2022/03/06 07:53:20;;;;;;;13.77;7.35;;;1.30;99.90;;;;;;4999859;28;20057;-59
2022/03/06 07:55:46;;;;;;;11.65;7.88;;;1.30;99.90;;;;;;4998710;28;20050;-58
2022/03/06 07:58:11;;;;;;;11.45;7.32;;;1.20;99.90;;;;;;5008620;28;20157;-58
2022/03/06 08:00:37;;;;;;;11.18;7.45;;;1.20;99.90;;;;;;5006874;28;20049;-58
2022/03/06 08:03:03;;;;;;;10.50;6.70;;;1.20;99.90;;;;;;5006891;28;20048;-58
2022/03/06 08:05:28;;;;;;;12.80;8.40;;;1.20;99.90;;;;;;5009143;28;20044;-59
2022/03/06 08:07:54;;;;;;;12.45;7.90;;;1.20;99.90;;;;;;5009083;28;20425;-58
2022/03/06 08:10:19;;;;;;;11.93;7.15;;;1.20;99.90;;;;;;4997620;28;20690;-59
2022/03/06 08:12:48;;;;;;;13.82;7.78;;;1.30;99.90;;;;;;5002373;28;20033;-59
2022/03/06 08:15:13;;;;;;;18.65;8.48;;;1.40;99.90;;;;;;5009008;28;20037;-59
2022/03/06 08:17:39;;;;;;;13.50;8.07;;;1.40;99.90;;;;;;5008477;28;20104;-59
2022/03/06 08:20:05;;;;;;;13.98;7.72;;;1.40;99.90;;;;;;5006957;28;20404;-58
2022/03/06 08:22:31;;;;;;;12.85;7.80;;;1.50;99.90;;;;;;5010875;28;20050;-58
2022/03/06 08:24:57;;;;;;;11.30;7.18;;;1.50;99.90;;;;;;5011294;28;20091;-58
2022/03/06 08:27:22;;;;;;;11.02;7.40;;;1.60;99.90;;;;;;5004901;28;20073;-59
2022/03/06 08:29:48;;;;;;;11.85;7.70;;;1.60;99.90;;;;;;4997434;28;20065;-59
2022/03/06 08:32:15;;;;;;;13.70;7.45;;;1.60;99.90;;;;;;5009550;28;20142;-58
2022/03/06 08:34:41;;;;;;;12.25;7.43;;;1.70;99.90;;;;;;5002128;28;20047;-59
2022/03/06 08:37:07;;;;;;;12.70;7.22;;;1.70;99.90;;;;;;4993958;28;20034;-58
2022/03/06 08:39:33;;;;;;;11.48;7.22;;;1.80;99.90;;;;;;4979440;28;20229;-59
2022/03/06 08:41:59;;;;;;;12.15;7.20;;;1.80;99.90;;;;;;5010549;28;20081;-59
2022/03/06 08:44:25;;;;;;;11.35;7.32;;;1.80;99.90;;;;;;5010733;28;20077;-58
2022/03/06 08:46:50;;;;;;;11.77;7.22;;;1.90;99.90;;;;;;4986824;28;20513;-59
2022/03/06 08:49:16;;;;;;;11.40;6.90;;;1.90;99.90;;;;;;5000409;28;20042;-59
2022/03/06 08:51:42;;;;;;;10.07;6.55;;;2.00;99.90;;;;;;5002117;28;20046;-58
2022/03/06 08:54:08;;;;;;;12.13;6.43;;;2.00;99.90;;;;;;4991748;28;20049;-58
2022/03/06 08:56:33;;;;;;;12.18;6.53;;;2.10;99.90;;;;;;5008476;28;20451;-59
2022/03/06 08:58:59;;;;;;;11.90;6.85;;;2.10;99.90;;;;;;5010406;28;20046;-59
2022/03/06 09:01:25;;;;;;;11.30;6.63;;;2.20;99.90;;;;;;5006461;28;20030;-58
2022/03/06 09:03:50;;;;;;;10.50;6.22;;;2.30;99.90;;;;;;4992138;28;20033;-59
2022/03/06 09:06:16;;;;;;;9.18;6.65;;;2.30;99.90;;;;;;5009644;28;20044;-59
2022/03/06 09:08:42;;;;;;;9.52;6.40;;;2.40;99.90;;;;;;5005950;28;20146;-58
2022/03/06 09:11:07;;;;;;;10.15;6.68;;;2.40;99.90;;;;;;5009917;28;20527;-60
2022/03/06 09:13:36;;;;;;;11.15;7.03;;;2.50;99.90;;;;;;5010370;28;20115;-60
2022/03/06 09:16:03;;;;;;;9.70;6.10;;;2.50;99.90;;;;;;5003971;28;20041;-60
2022/03/06 09:18:29;;;;;;;11.40;6.72;;;2.50;99.90;;;;;;5008024;28;20492;-60
2022/03/06 09:20:54;;;;;;;9.40;5.88;;;2.60;99.90;;;;;;5009972;28;20052;-60
2022/03/06 09:23:20;;;;;;;10.80;6.65;;;2.60;99.90;;;;;;5008025;28;20048;-59
2022/03/06 09:25:45;;;;;;;10.27;6.68;;;2.60;99.90;;;;;;5004020;28;20041;-60
2022/03/06 09:28:11;;;;;;;10.10;6.63;;;2.70;99.90;;;;;;5008840;28;20037;-60
2022/03/06 09:30:37;;;;;;;9.30;6.95;;;2.80;99.90;;;;;;4992414;28;20036;-60
2022/03/06 09:33:02;;;;;;;10.07;6.10;;;2.80;99.90;;;;;;5002138;28;20042;-60
2022/03/06 09:35:28;;;;;;;10.18;6.63;;;2.80;99.90;;;;;;5009462;28;20458;-59
2022/03/06 09:37:54;;;;;;;11.07;6.35;;;2.80;99.90;;;;;;5009766;28;20069;-60
2022/03/06 09:40:20;;;;;;;11.27;7.00;;;2.90;99.90;;;;;;5006107;28;20204;-60
2022/03/06 09:42:46;;;;;;;11.65;6.90;;;3.00;99.90;;;;;;4990763;28;20034;-60
2022/03/06 09:45:14;;;;;;;10.27;6.70;;;3.00;99.90;;;;;;5009642;28;20040;-60
2022/03/06 09:47:41;;;;;;;11.32;6.35;;;3.10;99.90;;;;;;5009492;28;20037;-60
2022/03/06 09:50:09;;;;;;;9.82;6.63;;;3.10;99.90;;;;;;5002966;28;20029;-59
2022/03/06 09:52:34;;;;;;;11.25;6.78;;;3.10;99.90;;;;;;5008154;28;20034;-60
2022/03/06 09:55:01;;;;;;;10.60;6.93;;;3.10;99.90;;;;;;5009287;28;20056;-60
2022/03/06 09:57:27;;;;;;;11.35;7.00;;;3.20;99.90;;;;;;5000888;28;20061;-60
2022/03/06 09:59:52;;;;;;;11.88;7.07;;;3.20;99.90;;;;;;5005297;28;20118;-60
2022/03/06 10:02:18;;;;;;;10.38;6.65;;;3.20;99.90;;;;;;5009246;28;20116;-59
2022/03/06 10:04:46;;;;;;;14.25;7.57;;;3.30;99.90;;;;;;5008773;28;20085;-58
2022/03/06 10:07:16;;;;;;;8.82;5.80;;;3.30;99.90;;;;;;4999156;28;20099;-60
2022/03/06 10:09:47;;;;;;;10.85;6.90;;;3.40;99.90;;;;;;5006432;28;20550;-59
2022/03/06 10:12:27;;;;;;;9.77;5.70;;;3.40;99.90;;;;;;5009271;28;20149;-60
2022/03/06 10:15:04;;;;;;;10.13;6.03;;;3.40;99.90;;;;;;4988662;28;20041;-59
2022/03/06 10:17:31;;;;;;;10.05;6.70;;;3.50;99.90;;;;;;5002916;28;20046;-60
2022/03/06 10:19:58;;;;;;;12.00;6.80;;;3.50;99.90;;;;;;5008811;28;20145;-60
2022/03/06 10:22:32;;;;;;;9.90;6.80;;;3.50;99.90;;;;;;5009324;28;20046;-60
2022/03/06 10:25:08;;;;;;;10.55;7.25;;;3.60;99.90;;;;;;5005928;28;20100;-60
2022/03/06 10:27:44;;;;;;;12.40;6.57;;;3.70;99.90;;;;;;5008645;28;20049;-60
2022/03/06 10:30:46;;;;;;;9.45;6.43;;;3.70;99.90;;;;;;5007329;28;20042;-60
2022/03/06 10:33:20;;;;;;;9.25;6.50;;;3.70;99.90;;;;;;5007300;28;20034;-60
2022/03/06 10:35:48;;;;;;;10.38;6.85;;;3.70;99.90;;;;;;5006363;28;20088;-60
2022/03/06 10:38:27;;;;;;;10.68;6.38;;;3.80;99.90;;;;;;5085302;27;20733;-58
2022/03/06 10:40:55;;;;;;;10.48;6.82;;;3.80;99.90;;;;;;5080984;28;20093;-58
2022/03/06 10:43:26;;;;;;;10.63;6.50;;;3.70;99.90;;;;;;5085056;28;20037;-59
2022/03/06 10:46:05;;;;;;;10.50;7.18;;;3.70;99.90;;;;;;5085262;28;20040;-59
2022/03/06 10:48:30;;;;;;;10.25;6.43;;;3.80;99.90;;;;;;5076521;28;20044;-58
2022/03/06 10:51:01;;;;;;;10.02;6.45;;;3.80;99.90;;;;;;5084315;28;20025;-59
2022/03/06 10:53:28;;;;;;;14.90;7.18;;;3.90;99.90;;;;;;5084417;28;20145;-59
2022/03/06 10:55:54;;;;;;;12.38;6.25;;;4.00;99.90;;;;;;5080419;28;20715;-58
2022/03/06 10:58:20;;;;;;;9.98;6.95;;;4.00;99.90;;;;;;5083617;28;20134;-59
2022/03/06 11:00:47;;;;;;;9.32;6.40;;;4.00;99.90;;;;;;5084679;28;20040;-59
2022/03/06 11:03:13;;;;;;;8.82;5.22;;;4.10;99.90;;;;;;5081533;28;20618;-58
2022/03/06 11:05:46;;;;;;;9.65;6.70;;;4.10;99.90;;;;;;5078307;28;20032;-59
2022/03/06 11:08:17;;;;;;;11.13;6.90;;;4.20;99.90;;;;;;5084159;28;20070;-59
2022/03/06 11:10:43;;;;;;;9.77;6.25;;;4.20;99.90;;;;;;5084139;28;20086;-58
2022/03/06 11:13:13;;;;;;;5.63;3.88;;;4.20;99.90;;;;;;5083925;28;20040;-60
2022/03/06 11:15:40;;;;;;;8.65;5.63;;;4.30;99.90;;;;;;5080675;28;20060;-59
2022/03/06 11:18:06;;;;;;;9.05;6.10;;;4.30;99.90;;;;;;5083474;28;20037;-59
2022/03/06 11:20:33;;;;;;;8.25;5.05;;;4.30;99.90;;;;;;5082168;28;20538;-59
2022/03/06 11:23:36;;;;;;;10.65;6.32;;;4.30;99.90;;;;;;5080371;28;20111;-60
2022/03/06 11:26:48;;;;;;;9.52;5.60;;;4.40;99.90;;;;;;5072596;28;20040;-58
2022/03/06 11:29:29;;;;;;;13.13;5.90;;;4.50;99.90;;;;;;5077496;28;20379;-59
2022/03/06 11:31:57;;;;;;;10.20;5.63;;;4.50;99.90;;;;;;5077160;28;20047;-58
2022/03/06 11:34:34;;;;;;;7.93;4.90;;;4.60;99.90;;;;;;5083507;28;20619;-59
2022/03/06 11:37:06;;;;;;;7.38;4.78;;;4.70;99.90;;;;;;5082538;28;20040;-57
2022/03/06 11:39:31;;;;;;;8.48;5.47;;;4.80;99.90;;;;;;5083617;28;20120;-59
2022/03/06 11:41:59;;;;;;;8.55;3.95;;;4.80;99.90;;;;;;5084048;28;20111;-59
2022/03/06 11:44:47;;;;;;;6.93;4.90;;;4.90;99.90;;;;;;5084289;28;20041;-59
2022/03/06 11:47:12;;;;;;;6.05;4.35;;;5.00;99.90;;;;;;5073507;28;20040;-59
2022/03/06 11:49:38;;;;;;;8.05;4.80;;;5.00;99.90;;;;;;5068950;28;20094;-58
2022/03/06 11:52:25;;;;;;;9.68;4.97;;;5.10;99.90;;;;;;5062735;28;20052;-59
2022/03/06 11:54:51;;;;;;;8.60;5.22;;;5.10;99.90;;;;;;5061036;28;20098;-59
2022/03/06 11:57:36;;;;;;;6.93;5.20;;;5.20;99.90;;;;;;5068981;28;20049;-58
2022/03/06 12:00:19;;;;;;;6.10;4.32;;;5.20;99.90;;;;;;5069447;28;20070;-59
2022/03/06 12:02:46;;;;;;;7.32;5.07;;;5.40;99.90;;;;;;5062416;28;20064;-57
2022/03/06 12:05:12;;;;;;;6.03;3.90;;;5.40;99.90;;;;;;5066453;28;20491;-60
2022/03/06 12:07:40;;;;;;;4.15;2.85;;;5.40;99.90;;;;;;5068807;28;20086;-60
2022/03/06 12:10:10;;;;;;;6.45;4.32;;;5.30;99.90;;;;;;5069082;28;20051;-60
2022/03/06 12:12:37;;;;;;;8.13;4.78;;;5.30;99.90;;;;;;5061646;28;20040;-58
2022/03/06 12:15:16;;;;;;;8.50;5.00;;;5.50;99.90;;;;;;5068781;28;20082;-62
2022/03/06 12:17:43;;;;;;;6.57;4.97;;;5.50;99.90;;;;;;5062671;28;20033;-60
2022/03/06 12:20:09;;;;;;;8.00;5.20;;;5.60;99.90;;;;;;5064768;28;20059;-59
2022/03/06 12:22:46;;;;;;;3.67;2.80;;;5.60;99.90;;;;;;5069457;28;20063;-61
2022/03/06 12:25:13;;;;;;;8.27;4.70;;;5.60;99.80;;;;;;5069547;28;20036;-58
2022/03/06 12:27:41;;;;;;;7.53;4.25;;;5.60;99.90;;;;;;5058572;28;20430;-58
2022/03/06 12:30:17;;;;;;;8.55;5.38;;;5.60;99.90;;;;;;5061617;28;20036;-60
2022/03/06 12:32:43;;;;;;;8.45;5.13;;;5.60;99.90;;;;;;5069579;28;20506;-59
2022/03/06 12:35:19;;;;;;;7.32;4.93;;;5.70;99.90;;;;;;5069590;28;20115;-60
2022/03/06 12:37:51;;;;;;;8.13;5.13;;;5.70;99.90;;;;;;5066716;28;20063;-60